RJFM

Miyazaki Airport

Miyazaki, Japan
TAF RJFM 251108Z 2512/2618 02012KT 9999 FEW015 SCT035
Issued Valid From Valid To
Sep-25 @ 11:08 UTC
(6 hours ago)
Sep-25 @ 12:00 UTC
(5 hours ago)
Sep-26 @ 18:00 UTC
(-1 days ago)
Sep-25 @ 12:00 to Sep-26 @ 18:00
TAF RJFM 251108Z 2512/2618 02012KT 9999 FEW015 SCT035
Wind Visibility Clouds
20° at 12 knots 10,000+ meters
  • Few at 1,500' AGL
  • Scattered at 3,500' AGL
TAF RJFM 251108Z 2512/2618 02012KT 9999 FEW015 SCT035
Issued Sep-25 @ 11:08 UTC
(6 hours ago)
Valid From Sep-25 @ 12:00 UTC
(5 hours ago)
Valid To Sep-26 @ 18:00 UTC
(-1 days ago)
Sep-25 @ 12:00 - Sep-26 @ 18:00
Wind Visibility
20° at 12 knots 10,000+ meters
Clouds
  • Few at 1,500' AGL
  • Scattered at 3,500' AGL